Time;durP1;ratioP1;P1;durP2;ratioP2;P2;SDS_P1;SDS_P2;PMS_P1;PMS_P2;Temp;Humidity;BMP_temperature;BMP_pressure;BME280_temperature;BME280_humidity;BME280_pressure;Samples;Min_cycle;Max_cycle;Signal;HPM_P1;HPM_P2
2022/04/06 00:00:23;;;;;;;16.02;8.85;;;9.10;99.90;;;;;;5016880;28;20049;-73
2022/04/06 00:02:49;;;;;;;13.88;9.15;;;9.10;99.90;;;;;;4992230;28;20041;-74
2022/04/06 00:05:15;;;;;;;17.05;8.32;;;9.10;99.90;;;;;;5017460;28;20045;-73
2022/04/06 00:07:42;;;;;;;16.23;9.98;;;9.10;99.90;;;;;;5019674;28;20136;-73
2022/04/06 00:10:09;;;;;;;19.23;10.27;;;9.10;99.90;;;;;;5027692;28;20160;-74
2022/04/06 00:12:37;;;;;;;20.38;10.23;;;9.10;99.90;;;;;;5028960;28;20044;-74
2022/04/06 00:15:04;;;;;;;19.42;10.18;;;9.10;99.90;;;;;;5026122;28;20457;-74
2022/04/06 00:17:30;;;;;;;15.73;9.07;;;9.10;99.90;;;;;;4996781;28;20077;-74
2022/04/06 00:19:56;;;;;;;20.02;10.30;;;9.10;99.90;;;;;;5022577;28;20990;-74
2022/04/06 00:22:21;;;;;;;14.77;9.05;;;9.10;99.90;;;;;;5002036;28;20051;-74
2022/04/06 00:24:47;;;;;;;16.67;9.07;;;9.10;99.90;;;;;;5030164;28;20067;-74
2022/04/06 00:27:13;;;;;;;22.15;11.18;;;9.10;99.90;;;;;;5007282;28;20041;-74
2022/04/06 00:29:39;;;;;;;21.08;11.40;;;9.10;99.90;;;;;;5000749;28;20061;-73
2022/04/06 00:32:05;;;;;;;18.65;9.90;;;9.10;99.90;;;;;;5000147;28;20124;-74
2022/04/06 00:37:15;;;;;;;23.27;10.98;;;9.10;99.90;;;;;;5021564;28;20045;-73
2022/04/06 00:39:40;;;;;;;15.93;10.00;;;9.10;99.90;;;;;;5014463;28;20118;-74
2022/04/06 00:42:06;;;;;;;19.48;10.52;;;9.10;99.90;;;;;;5023032;28;20045;-73
2022/04/06 00:44:34;;;;;;;15.65;9.27;;;9.10;99.90;;;;;;5024022;28;20052;-74
2022/04/06 00:47:02;;;;;;;18.40;9.45;;;9.10;99.90;;;;;;5001663;28;20063;-74
2022/04/06 00:49:28;;;;;;;26.17;11.07;;;9.10;99.90;;;;;;5002511;28;20085;-74
2022/04/06 00:51:54;;;;;;;17.88;9.68;;;9.10;99.90;;;;;;4999803;28;20795;-73
2022/04/06 00:54:23;;;;;;;23.48;10.57;;;9.20;99.90;;;;;;5007674;28;20041;-75
2022/04/06 00:56:49;;;;;;;23.30;10.52;;;9.20;99.90;;;;;;5031742;28;20152;-73
2022/04/06 00:59:16;;;;;;;24.23;11.35;;;9.20;99.90;;;;;;5026438;28;20120;-75
2022/04/06 01:01:45;;;;;;;20.27;11.75;;;9.20;99.90;;;;;;4996262;28;20045;-75
2022/04/06 01:04:10;;;;;;;18.05;9.98;;;9.20;99.90;;;;;;5025507;28;20105;-75
2022/04/06 01:06:36;;;;;;;18.55;9.07;;;9.10;99.90;;;;;;5001450;28;20049;-75
2022/04/06 01:09:02;;;;;;;15.50;7.93;;;9.20;99.90;;;;;;5005180;28;20054;-75
2022/04/06 01:11:28;;;;;;;13.48;8.80;;;9.20;99.90;;;;;;5007364;28;20786;-75
2022/04/06 01:13:55;;;;;;;18.05;9.18;;;9.20;99.90;;;;;;5008817;28;20060;-75
2022/04/06 01:16:20;;;;;;;23.33;10.73;;;9.20;99.90;;;;;;5026500;28;20060;-75
2022/04/06 01:18:46;;;;;;;15.90;8.98;;;9.20;99.90;;;;;;5028860;28;20045;-75
2022/04/06 01:21:12;;;;;;;15.35;8.38;;;9.20;99.90;;;;;;5000666;28;20738;-75
2022/04/06 01:23:41;;;;;;;21.88;10.25;;;9.30;99.90;;;;;;5013185;28;20055;-75
2022/04/06 01:26:07;;;;;;;17.52;7.47;;;9.30;99.90;;;;;;5013400;28;20052;-75
2022/04/06 01:28:32;;;;;;;13.18;7.60;;;9.30;99.90;;;;;;5027270;28;20053;-75
2022/04/06 01:30:58;;;;;;;17.23;8.35;;;9.30;99.90;;;;;;5011974;28;20150;-75
2022/04/06 01:33:24;;;;;;;19.73;8.70;;;9.30;99.90;;;;;;5020186;28;20033;-75
2022/04/06 01:35:49;;;;;;;12.18;7.22;;;9.30;99.90;;;;;;5010987;28;20044;-76
2022/04/06 01:38:15;;;;;;;16.60;8.05;;;9.30;99.90;;;;;;5033929;28;20041;-76
2022/04/06 01:40:41;;;;;;;16.33;7.90;;;9.30;99.90;;;;;;5009216;28;20094;-75
2022/04/06 01:43:06;;;;;;;16.33;7.70;;;9.30;99.90;;;;;;5036171;28;20122;-75
2022/04/06 01:45:32;;;;;;;13.77;7.00;;;9.30;99.90;;;;;;5001405;28;20111;-76
2022/04/06 01:47:57;;;;;;;18.08;6.43;;;9.30;99.90;;;;;;5013897;28;20049;-74
2022/04/06 01:53:07;;;;;;;15.80;6.57;;;9.30;99.90;;;;;;5016019;28;20882;-76
2022/04/06 01:55:33;;;;;;;15.27;5.75;;;9.40;99.90;;;;;;4999775;28;20045;-74
2022/04/06 01:57:59;;;;;;;10.80;5.90;;;9.30;99.90;;;;;;4995158;28;20045;-75
2022/04/06 02:00:26;;;;;;;13.48;6.20;;;9.40;99.90;;;;;;5016390;28;20049;-75
2022/04/06 02:02:53;;;;;;;10.32;6.30;;;9.40;99.90;;;;;;5017946;28;20095;-76
2022/04/06 02:05:19;;;;;;;12.13;5.85;;;9.40;99.90;;;;;;5012368;28;20037;-75
2022/04/06 02:07:49;;;;;;;12.95;6.50;;;9.40;99.90;;;;;;5008051;28;20041;-76
2022/04/06 02:10:16;;;;;;;18.83;7.57;;;9.40;99.90;;;;;;5020263;28;20064;-76
2022/04/06 02:12:42;;;;;;;11.13;6.53;;;9.40;99.90;;;;;;5011572;28;20073;-75
2022/04/06 02:15:12;;;;;;;13.70;7.85;;;9.40;99.90;;;;;;5003121;28;20133;-76
2022/04/06 02:17:38;;;;;;;16.98;7.07;;;9.40;99.90;;;;;;5004493;28;20064;-74
2022/04/06 02:20:04;;;;;;;11.88;6.30;;;9.40;99.90;;;;;;5008036;28;20057;-74
2022/04/06 02:22:30;;;;;;;16.35;7.47;;;9.40;99.90;;;;;;5003791;28;20854;-74
2022/04/06 02:24:55;;;;;;;9.95;5.50;;;9.40;99.90;;;;;;5008999;28;20045;-74
2022/04/06 02:27:22;;;;;;;8.82;6.45;;;9.50;99.90;;;;;;5019187;28;20828;-74
2022/04/06 02:29:48;;;;;;;15.55;5.95;;;9.50;99.90;;;;;;5008391;28;20053;-74
2022/04/06 02:32:13;;;;;;;9.43;5.70;;;9.50;99.90;;;;;;5016603;28;20053;-73
2022/04/06 02:34:39;;;;;;;7.72;4.93;;;9.40;99.90;;;;;;5010880;28;20790;-74
2022/04/06 02:37:07;;;;;;;10.38;5.40;;;9.40;99.90;;;;;;5038421;28;20878;-74
2022/04/06 02:39:32;;;;;;;9.02;4.18;;;9.40;99.90;;;;;;5030930;28;20052;-74
2022/04/06 02:41:58;;;;;;;8.90;4.68;;;9.40;99.90;;;;;;5037323;28;20049;-74
2022/04/06 02:44:23;;;;;;;7.00;4.57;;;9.50;99.90;;;;;;5038155;28;20049;-74
2022/04/06 02:46:49;;;;;;;7.30;4.50;;;9.50;99.90;;;;;;5020170;28;20053;-74
2022/04/06 02:49:15;;;;;;;8.43;4.70;;;9.50;99.90;;;;;;5036605;28;20123;-74
2022/04/06 02:51:41;;;;;;;8.10;4.13;;;9.50;99.90;;;;;;5037836;28;20045;-73
2022/04/06 02:54:07;;;;;;;9.63;4.00;;;9.50;99.90;;;;;;5037941;28;20294;-74
2022/04/06 02:56:33;;;;;;;13.80;4.38;;;9.40;99.90;;;;;;5018354;28;20057;-74
2022/04/06 02:59:00;;;;;;;6.75;4.15;;;9.50;99.90;;;;;;5019383;28;20391;-74
2022/04/06 03:01:25;;;;;;;10.55;4.20;;;9.40;99.90;;;;;;5020207;28;20088;-73
2022/04/06 03:03:51;;;;;;;15.70;4.38;;;9.40;99.90;;;;;;5019462;28;20147;-74
2022/04/06 03:06:16;;;;;;;7.55;3.53;;;9.40;99.90;;;;;;5001896;28;20501;-74
2022/04/06 03:08:42;;;;;;;7.88;4.15;;;9.40;99.90;;;;;;5017238;28;20041;-74
2022/04/06 03:11:08;;;;;;;6.00;4.95;;;9.40;99.90;;;;;;4999746;28;20132;-74
2022/04/06 03:13:34;;;;;;;15.07;4.00;;;9.30;99.90;;;;;;5017806;28;20455;-74
2022/04/06 03:15:59;;;;;;;5.45;3.45;;;9.30;99.90;;;;;;4999027;28;20412;-74
2022/04/06 03:18:25;;;;;;;8.95;3.50;;;9.30;99.90;;;;;;5016953;28;20162;-74
2022/04/06 03:20:50;;;;;;;9.10;3.63;;;9.30;99.90;;;;;;4998874;28;20053;-74
2022/04/06 03:23:16;;;;;;;7.38;3.22;;;9.30;99.90;;;;;;5016635;28;20515;-74
2022/04/06 03:25:42;;;;;;;6.95;3.30;;;9.30;99.90;;;;;;5017399;28;20834;-74
2022/04/06 03:28:09;;;;;;;6.97;3.15;;;9.40;99.90;;;;;;4998982;28;20694;-73
2022/04/06 03:30:35;;;;;;;6.07;3.92;;;9.30;99.90;;;;;;5016751;28;20599;-74
2022/04/06 03:33:01;;;;;;;11.25;3.63;;;9.40;99.90;;;;;;4998654;28;20481;-73
2022/04/06 03:35:27;;;;;;;8.45;5.03;;;9.30;99.90;;;;;;4998991;28;20053;-73
2022/04/06 03:37:53;;;;;;;8.82;3.50;;;9.30;99.90;;;;;;4998682;28;20049;-74
2022/04/06 03:40:19;;;;;;;8.95;3.72;;;9.30;99.90;;;;;;5014882;28;20119;-73
2022/04/06 03:42:45;;;;;;;8.70;4.10;;;9.30;99.90;;;;;;5036252;28;20864;-74
2022/04/06 03:45:10;;;;;;;9.48;4.20;;;9.40;99.90;;;;;;5035289;28;20131;-75
2022/04/06 03:47:37;;;;;;;8.45;4.47;;;9.30;99.90;;;;;;5018438;28;20103;-73
2022/04/06 03:50:04;;;;;;;11.85;4.75;;;9.30;99.90;;;;;;5036740;28;20052;-74
2022/04/06 03:52:30;;;;;;;11.13;5.53;;;9.30;99.90;;;;;;5036209;28;20049;-73
2022/04/06 03:54:56;;;;;;;13.80;5.18;;;9.30;99.90;;;;;;5036447;28;20052;-72
2022/04/06 03:57:22;;;;;;;12.10;5.47;;;9.30;99.90;;;;;;5036477;28;20049;-72
2022/04/06 03:59:48;;;;;;;16.50;7.47;;;9.30;99.90;;;;;;5035701;28;20056;-73
2022/04/06 04:02:14;;;;;;;10.88;6.38;;;9.30;99.90;;;;;;5036045;28;20037;-72
2022/04/06 04:04:39;;;;;;;10.40;6.47;;;9.30;99.90;;;;;;5019148;28;20092;-72
2022/04/06 04:07:07;;;;;;;12.07;7.22;;;9.20;99.90;;;;;;5031574;28;20088;-72
2022/04/06 04:09:33;;;;;;;19.50;6.88;;;9.30;99.90;;;;;;4979112;28;20058;-73
2022/04/06 04:11:59;;;;;;;13.45;7.70;;;9.30;99.90;;;;;;4997202;28;20060;-72
2022/04/06 04:14:25;;;;;;;14.65;7.57;;;9.30;99.90;;;;;;4996293;28;20062;-73
2022/04/06 04:16:51;;;;;;;11.77;6.40;;;9.30;99.90;;;;;;4979020;28;20613;-73
2022/04/06 04:19:16;;;;;;;17.88;7.20;;;9.30;99.90;;;;;;4979122;28;20046;-72
2022/04/06 04:21:43;;;;;;;12.18;6.97;;;9.30;99.90;;;;;;4979842;28;20064;-73
2022/04/06 04:24:09;;;;;;;14.32;8.07;;;9.30;99.90;;;;;;4997091;28;20042;-73
2022/04/06 04:26:36;;;;;;;14.23;8.10;;;9.30;99.90;;;;;;4996126;28;20104;-73
2022/04/06 04:29:03;;;;;;;16.35;8.45;;;9.30;99.90;;;;;;4978751;28;20090;-73
2022/04/06 04:31:28;;;;;;;18.60;7.28;;;9.30;99.90;;;;;;4979415;28;20149;-73
2022/04/06 04:33:54;;;;;;;18.20;8.43;;;9.30;99.90;;;;;;4977869;28;20054;-72
2022/04/06 04:36:20;;;;;;;16.90;9.02;;;9.40;99.90;;;;;;4996574;28;20045;-73
2022/04/06 04:38:45;;;;;;;14.10;8.55;;;9.30;99.90;;;;;;5007620;28;20682;-74
2022/04/06 04:41:12;;;;;;;18.23;8.70;;;9.30;99.90;;;;;;5021599;28;20073;-75
2022/04/06 04:43:37;;;;;;;14.30;7.45;;;9.30;99.90;;;;;;5040012;28;20045;-73
2022/04/06 04:46:04;;;;;;;12.90;7.38;;;9.30;99.90;;;;;;5039623;28;20048;-73
2022/04/06 04:48:30;;;;;;;12.18;7.43;;;9.30;99.90;;;;;;5039924;28;20220;-73
2022/04/06 04:50:55;;;;;;;12.90;7.63;;;9.20;99.90;;;;;;5040360;28;20076;-73
2022/04/06 04:53:21;;;;;;;15.65;7.47;;;9.20;99.90;;;;;;5039678;28;20140;-73
2022/04/06 04:55:46;;;;;;;15.65;7.03;;;9.20;99.90;;;;;;5020829;28;20054;-73
2022/04/06 04:58:12;;;;;;;10.88;6.75;;;9.10;99.90;;;;;;5039846;28;20087;-72
2022/04/06 05:00:38;;;;;;;12.55;7.07;;;9.10;99.90;;;;;;5039986;28;20439;-74
2022/04/06 05:03:03;;;;;;;13.88;5.65;;;9.10;99.90;;;;;;5039185;28;20044;-73
2022/04/06 05:05:29;;;;;;;15.98;7.18;;;9.00;99.90;;;;;;5039289;28;20076;-74
2022/04/06 05:07:57;;;;;;;8.88;5.78;;;9.00;99.90;;;;;;5019829;28;20038;-73
2022/04/06 05:10:23;;;;;;;9.38;4.93;;;9.00;99.90;;;;;;4996310;28;20056;-72
2022/04/06 05:12:48;;;;;;;12.38;6.05;;;9.00;99.90;;;;;;4997222;28;20046;-71
2022/04/06 05:15:14;;;;;;;9.85;5.38;;;8.90;99.90;;;;;;4986136;28;20876;-71
2022/04/06 05:17:40;;;;;;;14.93;6.00;;;8.90;99.90;;;;;;5015949;28;20046;-71
2022/04/06 05:20:07;;;;;;;9.02;6.28;;;8.90;99.90;;;;;;4998910;28;20089;-71
2022/04/06 05:22:33;;;;;;;14.55;5.38;;;9.00;99.90;;;;;;5011795;28;20790;-72
2022/04/06 05:25:00;;;;;;;8.65;4.28;;;8.90;99.90;;;;;;5014982;28;20111;-71
2022/04/06 05:27:26;;;;;;;8.73;4.47;;;8.90;99.90;;;;;;5016472;28;20132;-72
2022/04/06 05:29:51;;;;;;;28.15;6.18;;;8.90;99.90;;;;;;5016122;28;20052;-73
2022/04/06 05:32:17;;;;;;;14.68;4.88;;;8.90;99.90;;;;;;5016889;28;20045;-73
2022/04/06 05:34:43;;;;;;;6.93;4.47;;;9.00;99.90;;;;;;5015126;28;20073;-74
2022/04/06 05:37:08;;;;;;;9.68;4.97;;;8.90;99.90;;;;;;5016671;28;20056;-74
2022/04/06 05:39:34;;;;;;;9.60;3.88;;;9.00;99.90;;;;;;5026567;28;20056;-74
2022/04/06 05:41:59;;;;;;;7.20;4.03;;;8.90;99.90;;;;;;5036315;28;20044;-75
2022/04/06 05:44:25;;;;;;;8.65;5.13;;;9.00;99.90;;;;;;5017393;28;20583;-74
2022/04/06 05:46:50;;;;;;;11.13;4.60;;;9.00;99.90;;;;;;5018512;28;20049;-74
2022/04/06 05:49:16;;;;;;;7.05;4.97;;;9.00;99.90;;;;;;5035304;28;20041;-73
2022/04/06 05:51:41;;;;;;;10.00;4.03;;;9.00;99.90;;;;;;5035435;28;20110;-74
2022/04/06 05:54:07;;;;;;;10.98;3.50;;;9.00;99.90;;;;;;5036384;28;20183;-73
2022/04/06 05:56:33;;;;;;;14.27;4.63;;;9.00;99.90;;;;;;5017423;28;20073;-73
2022/04/06 05:58:58;;;;;;;9.25;3.95;;;9.00;99.90;;;;;;5016987;28;20175;-73
2022/04/06 06:01:24;;;;;;;10.52;4.43;;;9.00;99.90;;;;;;5017459;28;20060;-73
2022/04/06 06:03:49;;;;;;;5.15;3.55;;;9.00;99.90;;;;;;5018013;28;20041;-73
2022/04/06 06:06:15;;;;;;;4.47;3.33;;;8.90;99.90;;;;;;5013966;28;20382;-73
2022/04/06 06:08:41;;;;;;;6.70;3.75;;;8.90;99.90;;;;;;5016118;28;20844;-73
2022/04/06 06:11:07;;;;;;;7.18;3.58;;;9.00;99.90;;;;;;5016233;28;20049;-73
2022/04/06 06:13:33;;;;;;;5.25;3.58;;;8.90;99.90;;;;;;5014902;28;20056;-73
2022/04/06 06:16:00;;;;;;;7.22;3.20;;;9.00;99.90;;;;;;4997759;28;20487;-73
2022/04/06 06:18:26;;;;;;;10.25;4.57;;;9.00;99.90;;;;;;5016093;28;20936;-75
2022/04/06 06:20:51;;;;;;;3.67;2.60;;;8.90;99.90;;;;;;5015777;28;20257;-73
2022/04/06 06:23:17;;;;;;;13.38;3.70;;;8.90;99.90;;;;;;4998872;28;20516;-73
2022/04/06 06:25:43;;;;;;;9.90;3.45;;;8.80;99.90;;;;;;5016128;28;20039;-74
2022/04/06 06:28:09;;;;;;;8.35;4.55;;;8.80;99.90;;;;;;4996915;28;20056;-75
2022/04/06 06:30:34;;;;;;;8.20;3.95;;;8.70;99.90;;;;;;4997737;28;20049;-74
2022/04/06 06:33:00;;;;;;;7.80;2.90;;;8.80;99.90;;;;;;4997728;28;20832;-74
2022/04/06 06:35:26;;;;;;;6.15;2.70;;;8.80;99.90;;;;;;4997744;28;20049;-73
2022/04/06 06:37:54;;;;;;;12.75;3.13;;;8.80;99.90;;;;;;5014768;28;20940;-73
2022/04/06 06:40:21;;;;;;;5.45;2.97;;;9.10;99.90;;;;;;5012097;28;20048;-73
2022/04/06 06:42:47;;;;;;;6.35;3.38;;;8.70;99.90;;;;;;5034506;28;20096;-73
2022/04/06 06:45:12;;;;;;;6.40;2.83;;;8.70;99.90;;;;;;5034589;28;21035;-73
2022/04/06 06:47:40;;;;;;;5.30;2.92;;;8.70;99.90;;;;;;5034040;28;20416;-74
2022/04/06 06:50:07;;;;;;;10.93;3.85;;;8.80;99.90;;;;;;4652357;28;9999769;-74
2022/04/06 06:52:34;;;;;;;5.15;2.58;;;8.70;99.90;;;;;;4992864;28;20136;-74
2022/04/06 06:55:01;;;;;;;2.72;2.47;;;8.70;99.90;;;;;;5011202;28;20060;-74
2022/04/06 06:57:27;;;;;;;7.20;2.33;;;8.80;99.90;;;;;;5010560;28;20152;-74
2022/04/06 06:59:52;;;;;;;9.13;3.17;;;8.70;99.90;;;;;;5011936;28;20041;-75
2022/04/06 07:02:18;;;;;;;7.78;3.08;;;8.80;99.90;;;;;;4992777;28;21002;-80
2022/04/06 07:04:43;;;;;;;4.25;2.47;;;8.80;99.90;;;;;;4664513;28;10000384;-75
2022/04/06 07:07:09;;;;;;;4.95;2.67;;;8.80;99.90;;;;;;5015462;28;20080;-75
2022/04/06 07:09:34;;;;;;;6.38;3.60;;;8.80;99.90;;;;;;4990634;28;20072;-73
2022/04/06 07:12:00;;;;;;;5.20;2.78;;;8.80;99.90;;;;;;4993147;28;20569;-73
2022/04/06 07:14:26;;;;;;;4.35;2.67;;;8.80;99.90;;;;;;4993770;28;20118;-74
2022/04/06 07:16:53;;;;;;;7.90;2.50;;;8.80;99.90;;;;;;4990768;28;20517;-73
2022/04/06 07:19:18;;;;;;;6.07;2.38;;;8.80;99.90;;;;;;4992055;28;20460;-73
2022/04/06 07:21:44;;;;;;;8.27;2.80;;;8.50;99.90;;;;;;4990026;28;20107;-73
2022/04/06 07:24:09;;;;;;;5.57;2.78;;;8.70;99.90;;;;;;4989671;28;20973;-73
2022/04/06 07:26:35;;;;;;;6.55;2.85;;;8.80;99.90;;;;;;4990950;28;20845;-73
2022/04/06 07:29:00;;;;;;;9.93;4.13;;;8.80;99.90;;;;;;4993064;28;20053;-73
2022/04/06 07:31:26;;;;;;;7.13;3.08;;;8.90;99.90;;;;;;4991610;28;20044;-74
2022/04/06 07:33:51;;;;;;;6.13;3.30;;;8.80;99.90;;;;;;4991407;28;20046;-74
2022/04/06 07:36:18;;;;;;;6.57;2.75;;;8.80;99.90;;;;;;4992422;28;20054;-75
2022/04/06 07:38:44;;;;;;;7.10;3.22;;;8.80;99.90;;;;;;4993299;28;20484;-75
2022/04/06 07:41:09;;;;;;;9.57;4.05;;;8.80;99.90;;;;;;4990881;28;20068;-75
2022/04/06 07:43:35;;;;;;;6.43;2.95;;;8.80;99.90;;;;;;4992596;28;20124;-75
2022/04/06 07:46:00;;;;;;;8.57;3.63;;;8.80;99.90;;;;;;4993307;28;20117;-75
2022/04/06 07:48:27;;;;;;;10.57;5.13;;;8.90;99.90;;;;;;4989862;28;20049;-76
2022/04/06 07:50:54;;;;;;;8.25;4.35;;;8.90;99.90;;;;;;4989536;28;20061;-76
2022/04/06 07:53:20;;;;;;;6.18;3.17;;;8.80;99.90;;;;;;4989890;28;20056;-75
2022/04/06 07:55:46;;;;;;;9.02;4.13;;;8.90;99.90;;;;;;4991237;28;20041;-74
2022/04/06 07:58:13;;;;;;;7.65;3.53;;;8.80;99.90;;;;;;4989066;28;20056;-74
2022/04/06 08:00:38;;;;;;;9.80;3.80;;;8.90;99.90;;;;;;4989306;28;20038;-73
2022/04/06 08:03:04;;;;;;;9.13;3.75;;;8.80;99.90;;;;;;4989181;28;20096;-73
2022/04/06 08:05:32;;;;;;;12.20;5.50;;;8.80;99.90;;;;;;4745274;28;10000876;-72
2022/04/06 08:07:58;;;;;;;11.23;3.72;;;8.90;99.90;;;;;;5000131;28;20341;-77
2022/04/06 08:10:23;;;;;;;10.05;3.85;;;8.80;99.90;;;;;;5030034;28;20056;-76
2022/04/06 08:12:49;;;;;;;10.18;3.80;;;8.80;99.90;;;;;;5033901;28;20159;-75
2022/04/06 08:15:15;;;;;;;11.63;3.80;;;8.90;99.90;;;;;;5018466;28;20056;-75
2022/04/06 08:17:44;;;;;;;8.40;4.30;;;8.90;99.90;;;;;;5014960;28;20753;-75
2022/04/06 08:20:12;;;;;;;9.13;4.15;;;8.90;99.90;;;;;;4996867;28;20156;-77
2022/04/06 08:22:42;;;;;;;10.05;4.00;;;9.00;99.90;;;;;;4997125;28;20049;-77
2022/04/06 08:25:08;;;;;;;7.13;3.45;;;9.00;99.90;;;;;;5015307;28;20123;-77
2022/04/06 08:27:39;;;;;;;9.55;4.43;;;9.00;99.90;;;;;;5015065;28;20063;-78
2022/04/06 08:30:06;;;;;;;6.57;3.17;;;9.10;99.90;;;;;;4998083;28;20057;-74
2022/04/06 08:32:32;;;;;;;6.82;3.28;;;9.00;99.90;;;;;;5014424;28;20065;-76
2022/04/06 08:34:58;;;;;;;4.90;3.30;;;9.10;99.90;;;;;;5014246;28;20054;-75
2022/04/06 08:37:24;;;;;;;7.85;3.95;;;9.00;99.90;;;;;;5014797;28;20045;-75
2022/04/06 08:39:49;;;;;;;7.18;3.65;;;9.00;99.90;;;;;;5008771;28;21001;-74
2022/04/06 08:42:16;;;;;;;6.18;3.13;;;9.20;99.90;;;;;;5033539;28;20148;-73
2022/04/06 08:44:41;;;;;;;13.65;3.85;;;9.10;99.90;;;;;;5016398;28;20059;-73
2022/04/06 08:47:07;;;;;;;5.07;3.00;;;9.10;99.90;;;;;;5033658;28;20053;-73
2022/04/06 08:49:35;;;;;;;7.80;4.05;;;9.10;99.90;;;;;;5015054;28;20079;-73
2022/04/06 08:52:03;;;;;;;3.50;2.72;;;9.10;99.90;;;;;;5034499;28;20057;-73
2022/04/06 08:54:29;;;;;;;6.70;3.53;;;9.10;99.90;;;;;;5033963;28;20152;-74
2022/04/06 08:56:55;;;;;;;6.35;3.33;;;9.10;99.90;;;;;;5033633;28;20416;-75
2022/04/06 08:59:21;;;;;;;7.28;3.20;;;9.10;99.90;;;;;;5034425;28;20041;-75
2022/04/06 09:01:47;;;;;;;5.95;3.92;;;9.10;99.90;;;;;;5034051;28;20048;-75
2022/04/06 09:04:13;;;;;;;3.97;2.63;;;9.10;99.90;;;;;;5031992;28;20178;-76
2022/04/06 09:06:40;;;;;;;5.05;3.25;;;9.20;99.90;;;;;;5013182;28;20048;-75
2022/04/06 09:09:07;;;;;;;4.50;2.83;;;9.20;99.90;;;;;;4977300;28;20089;-74
2022/04/06 09:11:44;;;;;;;5.55;3.20;;;9.20;99.90;;;;;;4976789;28;20058;-74
2022/04/06 09:14:10;;;;;;;5.18;3.53;;;9.20;99.90;;;;;;4976719;28;20089;-75
2022/04/06 09:16:36;;;;;;;5.25;2.97;;;9.30;99.90;;;;;;4976062;28;20046;-75
2022/04/06 09:19:09;;;;;;;8.18;4.25;;;9.40;99.90;;;;;;4995454;28;20038;-75
2022/04/06 09:21:42;;;;;;;6.07;3.30;;;9.50;99.90;;;;;;4977711;28;20057;-74
2022/04/06 09:24:18;;;;;;;9.27;3.38;;;9.60;99.90;;;;;;4996148;28;20057;-74
2022/04/06 09:27:02;;;;;;;6.20;3.33;;;9.70;99.90;;;;;;4981298;28;20947;-73
2022/04/06 09:29:27;;;;;;;;;;;9.80;99.90;;;;;;4999395;28;20050;-75
2022/04/06 09:31:54;;;;;;;8.35;3.65;;;9.90;99.90;;;;;;4999023;28;19991;-74
2022/04/06 09:34:26;;;;;;;4.90;3.65;;;10.00;99.90;;;;;;4999760;28;20049;-75
2022/04/06 09:36:56;;;;;;;4.32;3.35;;;10.00;99.90;;;;;;4998884;28;20046;-75
2022/04/06 09:39:56;;;;;;;8.75;3.25;;;9.90;99.90;;;;;;4999853;28;20049;-75
2022/04/06 09:42:25;;;;;;;4.32;3.13;;;10.00;99.90;;;;;;4994966;28;20065;-75
2022/04/06 09:47:54;;;;;;;7.63;2.97;;;10.10;99.90;;;;;;5020786;28;20108;-74
2022/04/06 09:50:22;;;;;;;5.03;3.10;;;10.10;99.90;;;;;;5038581;28;20049;-74
2022/04/06 09:52:51;;;;;;;8.57;3.67;;;10.20;99.90;;;;;;5020807;28;20053;-74
2022/04/06 09:55:18;;;;;;;8.65;2.72;;;10.20;99.90;;;;;;5020335;28;20156;-74
2022/04/06 09:57:51;;;;;;;7.40;3.03;;;10.20;99.90;;;;;;5037872;28;20941;-75
2022/04/06 10:00:21;;;;;;;3.65;3.10;;;10.30;99.90;;;;;;5038795;28;20060;-75
2022/04/06 10:02:53;;;;;;;4.95;3.33;;;10.40;99.90;;;;;;5020256;28;20049;-75
2022/04/06 10:05:21;;;;;;;4.57;3.25;;;10.40;99.90;;;;;;5020272;28;20171;-75
2022/04/06 10:07:48;;;;;;;8.05;3.67;;;10.40;99.90;;;;;;5021814;28;20193;-75
2022/04/06 10:10:14;;;;;;;9.75;3.53;;;10.40;99.90;;;;;;4998281;28;20057;-75
2022/04/06 10:12:40;;;;;;;11.00;4.00;;;10.40;99.90;;;;;;4980366;28;20435;-75
2022/04/06 10:15:06;;;;;;;7.05;2.95;;;10.40;99.90;;;;;;4981000;28;20045;-75
2022/04/06 10:17:32;;;;;;;6.95;3.75;;;10.30;99.90;;;;;;4998399;28;20104;-75
2022/04/06 10:20:06;;;;;;;6.60;3.30;;;10.40;99.90;;;;;;4979595;28;20046;-75
2022/04/06 10:22:48;;;;;;;7.80;3.95;;;10.30;99.90;;;;;;4981048;28;20060;-75
2022/04/06 10:25:21;;;;;;;8.90;3.92;;;10.30;99.90;;;;;;4997957;28;20074;-75
2022/04/06 10:27:53;;;;;;;10.63;4.68;;;10.30;99.90;;;;;;4998345;28;20251;-74
2022/04/06 10:30:23;;;;;;;7.20;3.42;;;10.20;99.90;;;;;;4998293;28;20079;-75
2022/04/06 10:32:53;;;;;;;6.95;3.90;;;10.30;99.90;;;;;;4979865;28;20046;-75
2022/04/06 10:35:37;;;;;;;6.03;4.80;;;10.20;99.90;;;;;;4979962;28;20119;-74
2022/04/06 10:38:02;;;;;;;13.07;4.30;;;10.30;99.90;;;;;;4979868;28;20045;-75
2022/04/06 10:40:54;;;;;;;11.20;3.63;;;10.20;99.90;;;;;;5034009;28;20056;-75
2022/04/06 10:43:35;;;;;;;11.05;4.53;;;10.20;99.90;;;;;;5026046;28;20057;-75
2022/04/06 10:46:01;;;;;;;6.82;3.95;;;10.30;99.90;;;;;;5018478;28;20088;-75
2022/04/06 10:48:27;;;;;;;9.00;4.15;;;10.30;99.90;;;;;;5037156;28;20317;-75
2022/04/06 10:51:12;;;;;;;9.98;4.47;;;10.30;99.90;;;;;;5037260;28;20594;-76
2022/04/06 10:53:38;;;;;;;7.28;4.72;;;10.30;99.90;;;;;;5018991;28;20746;-77
2022/04/06 10:56:12;;;;;;;6.32;4.20;;;10.20;99.90;;;;;;5019634;28;20056;-80
2022/04/06 10:58:56;;;;;;;7.45;4.03;;;10.20;99.90;;;;;;5019349;28;20041;-82
2022/04/06 11:01:26;;;;;;;10.95;5.18;;;10.10;99.90;;;;;;5036283;28;20121;-81
2022/04/06 11:04:06;;;;;;;10.60;5.88;;;10.20;99.90;;;;;;5037305;28;20154;-79
2022/04/06 11:06:41;;;;;;;12.02;5.78;;;10.10;99.90;;;;;;5036923;28;20124;-78
2022/04/06 11:12:12;;;;;;;9.27;4.95;;;10.10;99.90;;;;;;4979528;28;20130;-77
2022/04/06 11:14:38;;;;;;;10.63;4.72;;;10.10;99.90;;;;;;4997171;28;20059;-76
2022/04/06 11:17:42;;;;;;;16.08;4.68;;;10.10;99.90;;;;;;4980152;28;20057;-76
2022/04/06 11:20:19;;;;;;;11.85;5.85;;;10.10;99.90;;;;;;4979456;28;20085;-75
2022/04/06 11:22:53;;;;;;;10.90;5.10;;;10.10;99.90;;;;;;4978569;28;20139;-75
2022/04/06 11:25:21;;;;;;;7.40;5.07;;;10.10;99.90;;;;;;4997861;28;20050;-76
2022/04/06 11:27:47;;;;;;;12.63;5.32;;;10.20;99.90;;;;;;4997116;28;20076;-76
2022/04/06 11:30:14;;;;;;;19.20;7.55;;;10.20;99.90;;;;;;4997125;28;20049;-77
2022/04/06 11:32:43;;;;;;;11.48;5.55;;;10.20;99.90;;;;;;4980133;28;20049;-77
2022/04/06 11:35:13;;;;;;;9.73;5.50;;;10.20;99.90;;;;;;4979702;28;20045;-76
2022/04/06 11:37:47;;;;;;;13.40;4.50;;;10.30;99.90;;;;;;4997787;28;20049;-75
2022/04/06 11:40:15;;;;;;;6.38;4.60;;;10.50;99.90;;;;;;5029364;28;20095;-75
2022/04/06 11:42:41;;;;;;;7.72;4.85;;;10.60;99.90;;;;;;5018410;28;20118;-75
2022/04/06 11:45:09;;;;;;;7.22;4.97;;;10.60;99.90;;;;;;5036793;28;20049;-75
2022/04/06 11:47:36;;;;;;;10.82;7.25;;;10.70;99.90;;;;;;5035845;28;20064;-74
2022/04/06 11:50:12;;;;;;;8.48;5.25;;;10.80;99.90;;;;;;5036004;28;20041;-75
2022/04/06 11:52:41;;;;;;;5.97;4.97;;;10.90;99.90;;;;;;5036614;28;20061;-75
2022/04/06 11:55:07;;;;;;;9.60;5.55;;;11.00;99.90;;;;;;5036069;28;20867;-75
2022/04/06 11:57:40;;;;;;;8.60;4.75;;;11.20;99.90;;;;;;5035506;28;20045;-75
2022/04/06 12:00:08;;;;;;;9.10;4.68;;;11.20;99.90;;;;;;5018112;28;20048;-74
2022/04/06 12:02:51;;;;;;;7.18;5.50;;;11.20;99.90;;;;;;5035960;28;20152;-75
2022/04/06 12:05:17;;;;;;;7.30;4.95;;;11.10;99.90;;;;;;5017347;28;20048;-75
2022/04/06 12:07:44;;;;;;;7.18;4.63;;;11.10;99.90;;;;;;5020882;28;20053;-74
2022/04/06 12:10:09;;;;;;;6.93;5.25;;;11.10;99.90;;;;;;4978913;28;20062;-74
2022/04/06 12:12:38;;;;;;;7.68;4.60;;;11.10;99.90;;;;;;4995936;28;20052;-74
2022/04/06 12:15:05;;;;;;;7.40;4.80;;;11.00;99.90;;;;;;4996538;28;20130;-74
2022/04/06 12:17:33;;;;;;;14.27;6.00;;;11.10;99.90;;;;;;4978100;28;20046;-74
2022/04/06 12:19:59;;;;;;;15.00;6.00;;;11.20;99.90;;;;;;4996468;28;20038;-74
2022/04/06 12:22:25;;;;;;;10.15;4.97;;;11.40;99.90;;;;;;4997049;28;20805;-74
2022/04/06 12:24:51;;;;;;;10.32;3.78;;;11.70;99.90;;;;;;4995912;28;20045;-74
2022/04/06 12:27:29;;;;;;;8.52;4.50;;;11.70;99.90;;;;;;4996578;28;20672;-74
2022/04/06 12:30:09;;;;;;;8.23;4.25;;;11.80;99.90;;;;;;4996109;28;20053;-74
2022/04/06 12:32:45;;;;;;;11.52;6.20;;;11.70;99.90;;;;;;4978111;28;20100;-74
2022/04/06 12:35:24;;;;;;;9.32;4.28;;;11.60;99.90;;;;;;4996291;28;20439;-75
2022/04/06 12:37:50;;;;;;;6.80;5.20;;;11.70;99.90;;;;;;4996102;28;20121;-75
2022/04/06 12:40:23;;;;;;;8.95;4.18;;;11.70;99.90;;;;;;5010333;28;20041;-75
2022/04/06 12:42:49;;;;;;;19.13;4.55;;;11.80;99.90;;;;;;5017392;28;20053;-74
2022/04/06 12:45:15;;;;;;;6.82;3.45;;;11.90;99.90;;;;;;5017492;28;20041;-74
2022/04/06 12:47:41;;;;;;;8.75;4.85;;;12.10;99.90;;;;;;5009668;28;20163;-75
2022/04/06 12:50:19;;;;;;;13.55;4.57;;;12.20;99.90;;;;;;5030758;28;20120;-74
2022/04/06 12:52:47;;;;;;;12.77;4.88;;;12.30;99.90;;;;;;5017646;28;20057;-75
2022/04/06 12:55:15;;;;;;;6.88;3.58;;;12.40;99.90;;;;;;5020694;28;20054;-75
2022/04/06 12:57:41;;;;;;;8.32;4.60;;;12.40;99.90;;;;;;5015797;28;20050;-75
2022/04/06 13:00:13;;;;;;;10.30;5.32;;;12.40;99.90;;;;;;5018434;28;20103;-75
2022/04/06 13:02:51;;;;;;;6.80;4.78;;;12.40;99.90;;;;;;5020191;28;20099;-75